Terminal Aerodrome Forecast
Issued by NWS

Home | Current Version | Previous Version | Text Only | Print | Product List | Glossary On
Versions: 1 2 3 4 5 6 7 8 9 10 11 12 13 14 15 16 17 18 19 20 21
000
FTUS44 KCRP 220530
TAFALI
TAF
KALI 220530Z 2206/2306 15006KT P6SM SKC
     FM220800 VRB03KT 3/4SM BR VV004
     FM221200 28005KT P6SM FEW015
     FM221600 35010KT P6SM BKN035
     FM221900 36015G20KT P6SM SKC
     FM230100 03008KT P6SM SKC=

USA.gov is the U.S. government's official web portal to all federal, state and local government web resources and services.